Winnie, TX

9:21 PM CDT on September 01, 2014 (GMT -0500)
Southeast Texas Regional | Change Station
CLOSE
Current Station
Airport
Location: Beaumont,
Elevation: 13 ft
Nearby Weather Stations

Elev 13 ft 29.95 °N, 94.02 °W | Updated 28 minutes ago

Partly Cloudy
Partly Cloudy
80 °F
Feels Like 85 °F
N
7
Wind Variable Wind from SSE

Today
High -- | Low -- °F
--% Chance of Precip.
Yesterday
High -- | Low -- °F
Precip. -- in
6:54 AM 7:39 PM
Waxing Crescent, 46% visible
Pressure 29.96 in
Visibility 10.0 miles
Clouds Few 2000 ft
Heat Index 85 °F
Dew Point 76 °F
Humidity 87%
Rainfall 0.22 in
Snow Depth Not available.
UV 0 out of 12
Pollen 6.00 out of 12
Ozone Good
PM2.5 Good
Flu Activity Not available.
METAR KBPT 020153Z COR 15006KT 10SM FEW020 27/24 A2996 RMK AO2 SLP145 T02670244 LTGIC DSNT ESE

More Conditions Fewer Conditions

Pressure 29.96 in
Visibility 10.0 miles
Clouds Few 2000 ft
Heat Index 85 °F
Dew Point 76 °F
Humidity 87%
Rainfall 0.22 in
Snow Depth Not available.
UV 0 out of 12
Pollen 6.00 out of 12
Ozone Good
PM2.5 Good
Flu Activity Not available.
METAR KBPT 020153Z COR 15006KT 10SM FEW020 27/24 A2996 RMK AO2 SLP145 T02670244 LTGIC DSNT ESE

More Conditions Fewer Conditions

10-Day Weather Forecast

Almanac

Astronomy

Sep. 01, 2014 Rise Set
Actual Time 6:54 AM CDT 7:39 PM CDT
Civil Twilight 6:30 AM CDT 8:03 PM CDT
Nautical Twilight 6:01 AM CDT 8:32 PM CDT
Astronomical Twilight 5:32 AM CDT 9:01 PM CDT
Moon 1:11 PM CDT (9/1) No Moon Set
Length of Visible Light 13h 33m
Length of Day
12h 45m
Tomorrow will be 1m 44s shorter.
Waxing Crescent, 46% of the Moon is Illuminated
Today
Waxing Crescent
Sep 2
First Quarter
Sep 8
Full
Sep 15
Last Quarter
Sep 24
New

Today's Extremes

State Highs State Lows

Community

WunderPhotos

Upload Photos

1,749,500 photos uploaded!

Nearby

Air Quality

  Air Quality AQ Index Pollutant
Yesterday Good
PM2.5
Yesterday Good
OZONE
Current Good
PM2.5
Current Good
OZONE
Monday Good
OZONE
Monday Good
PM10
Tuesday Good
OZONE
Tuesday Good
PM10
Wednesday Good
OZONE
Wednesday Good
PM10
Thursday Good
OZONE
Thursday Good
PM10

Snow Depth

Station Depth Elevation
No new snow has been reported.

Earthquake Activity

City Distance Mag. Time & Date
No recent earthquake activity has been reported nearby.
Minimum magnitude displayed is 2.5.

Coastal Water Temperatures

Place Temperature
Sabine Pass North, TX 84.0 °F
Calcasieu Pass, LA 84.9 °F
Port Arthur, TX 86.0 °F
Rollover Pass, TX 84.0 °F
Galveston Bay (North Jetty), TX 84.9 °F
Galveston Pier TX 84.0 °F

Nearby Weather Stations